Flight Track Log - Related Links

Times and Time Zones

All times are in EDT time to prevent confusion due to time zone crossing. See the ASQ4252 flight status page for this flight to view local times or setup timezone preferences in your user account.

Time Position Orientation Groundspeed Altitude Reporting Facility
EDT Latitude Longitude Course Direction KTS MPH feet Rate Location/Type
Sat 12:47:17 PM 44.8833 -93.3000 120° Southeast 220 253 3,500  Level Minneapolis TRACON
Sat 12:48:26 PM 44.8483 -93.3961 243° Southwest 262 302 6,300 1,695 Climbing Minneapolis Center
Sat 12:49:00 PM 44.8244 -92.7699 141° Southeast  Level Estimated
Sat 12:49:28 PM 44.7803 -93.4444 207° Southwest 275 316 7,200  Level Minneapolis Center
Sat 12:50:00 PM 44.8049 -92.6195 141° Southeast  Level Estimated
Sat 12:50:30 PM 44.7039 -93.4597 188° South 299 344 9,400  Level Minneapolis Center
Sat 12:51:00 PM 44.6984 -92.6488 191° South  Level FlightAware Approximate
Sat 12:51:32 PM 44.6433 -93.3450 127° Southeast 316 364 11,900  Level Minneapolis Center
Sat 12:52:00 PM 44.6795 -92.4985 120° Southeast  Level Estimated
Sat 12:52:34 PM 44.6047 -93.2314 115° Southeast 329 379 13,900  Level Minneapolis Center
Sat 12:53:36 PM 44.5639 -93.1083 115° Southeast 352 405 14,900 774 Climbing Minneapolis Center
Sat 12:54:38 PM 44.5178 -92.9703 115° Southeast 393 452 15,500 720 Climbing Minneapolis Center
Sat 12:55:41 PM 44.4567 -92.7886 115° Southeast 433 498 16,400 960 Climbing Minneapolis Center
Sat 12:56:43 PM 44.4039 -92.6336 115° Southeast 443 510 17,500 1,065 Climbing Minneapolis Center
Sat 12:57:45 PM 44.3497 -92.4792 116° Southeast 444 511 18,600 968 Climbing Minneapolis Center
Sat 12:58:47 PM 44.2883 -92.3278 119° Southeast 449 517 19,500 919 Climbing Minneapolis Center
Sat 12:59:49 PM 44.2219 -92.1758 121° Southeast 458 527 20,500 1,087 Climbing Minneapolis Center
Sat 01:00:54 PM 44.1419 -91.9936 121° Southeast 460 529 21,800 1,134 Climbing Minneapolis Center
Sat 01:01:56 PM 44.0764 -91.8439 121° Southeast 458 527 22,900 1,016 Climbing Minneapolis Center
Sat 01:02:58 PM 44.0106 -91.6925 121° Southeast 458 527 23,900 968 Climbing Minneapolis Center
Sat 01:04:00 PM 43.9358 -91.5256 122° Southeast 456 525 24,900 960 Climbing Minneapolis Center
Sat 01:05:03 PM 43.8617 -91.3839 126° Southeast 458 527 25,900 960 Climbing Minneapolis Center
Sat 01:06:05 PM 43.7789 -91.2503 131° Southeast 460 529 26,900 968 Climbing Minneapolis Center
Sat 01:07:07 PM 43.6969 -91.1169 130° Southeast 458 527 27,900 968 Climbing Minneapolis Center
Sat 01:08:09 PM 43.6169 -90.9861 130° Southeast 453 521 28,900 1,065 Climbing Minneapolis Center
Sat 01:09:11 PM 43.5211 -90.8303 130° Southeast 447 514 30,100 1,065 Climbing Minneapolis Center
Sat 01:10:13 PM 43.4397 -90.6994 131° Southeast 450 518 31,100 968 Climbing Minneapolis Center
Sat 01:11:15 PM 43.3581 -90.5672 130° Southeast 453 521 32,100 968 Climbing Minneapolis Center
Sat 01:12:17 PM 43.2750 -90.4369 131° Southeast 454 522 33,100 919 Climbing Minneapolis Center
Sat 01:13:19 PM 43.1933 -90.3072 131° Southeast 454 522 34,000 919 Climbing Minneapolis Center
Sat 01:14:21 PM 43.1011 -90.1594 130° Southeast 444 511 35,000 484 Climbing Minneapolis Center
Sat 01:15:23 PM 43.0194 -90.0297 131° Southeast 448 516 35,000  Level Minneapolis Center
Sat 01:16:25 PM 42.9425 -89.8831 126° Southeast 469 540 35,000  Level Minneapolis Center
Sat 01:17:39 PM 42.8558 -89.7025 123° Southeast 486 559 35,000  Level Chicago Center
Sat 01:18:41 PM 42.7672 -89.5242 124° Southeast 488 562 35,000  Level Chicago Center
Sat 01:19:43 PM 42.6936 -89.3731 123° Southeast 481 554 35,000  Level Chicago Center
Sat 01:20:45 PM 42.6239 -89.2306 124° Southeast 459 528 35,000  Level Chicago Center
Sat 01:21:47 PM 42.5567 -89.0956 124° Southeast 436 502 35,000  Level Chicago Center
Sat 01:22:49 PM 42.4778 -88.9400 124° Southeast 429 494 35,000  Level Chicago Center
Sat 01:23:51 PM 42.4108 -88.8058 124° Southeast 432 497 35,000  Level Chicago Center
Sat 01:24:53 PM 42.3425 -88.6736 125° Southeast 431 496 35,000  Level Chicago Center
Sat 01:25:55 PM 42.2728 -88.5369 125° Southeast 437 503 35,000  Level Chicago Center
Sat 01:26:58 PM 42.2047 -88.4003 124° Southeast 440 506 35,000  Level Chicago Center
Sat 01:28:00 PM 42.1353 -88.2658 125° Southeast 439 505 35,000  Level Chicago Center
Sat 01:29:02 PM 42.0528 -88.1047 125° Southeast 437 503 35,000  Level Chicago Center
Sat 01:30:04 PM 42.0014 -87.9572 115° Southeast 443 510 35,000  Level Chicago Center
Sat 01:31:06 PM 41.9972 -87.7889 92° East 450 518 35,000  Level Chicago Center
Sat 01:32:08 PM 41.9961 -87.6125 90° East 463 533 35,000  Level Chicago Center
Sat 01:33:10 PM 41.9944 -87.4331 91° East 475 547 35,000  Level Chicago Center
Sat 01:34:12 PM 41.9911 -87.2497 91° East 488 562 35,000  Level Chicago Center
Sat 01:35:14 PM 41.9894 -87.0297 91° East 492 566 35,000  Level Chicago Center
Sat 01:36:16 PM 41.9867 -86.8450 91° East 495 570 35,000  Level Chicago Center
Sat 01:37:18 PM 41.9836 -86.6769 91° East 500 575 35,000  Level Chicago Center
Sat 01:38:20 PM 41.9800 -86.4919 91° East 497 572 35,000  Level Chicago Center
Sat 01:39:22 PM 41.9758 -86.2689 91° East 499 574 35,000  Level Chicago Center
Sat 01:40:25 PM 41.9719 -86.0828 92° East 501 577 35,000  Level Chicago Center
Sat 01:41:27 PM 41.9675 -85.8967 92° East 498 573 35,000  Level Chicago Center
Sat 01:42:29 PM 41.9636 -85.7142 92° East 491 565 35,000  Level Chicago Center
Sat 01:43:31 PM 41.9603 -85.5336 91° East 484 557 35,000  Level Chicago Center
Sat 01:44:33 PM 41.9542 -85.3553 93° East 476 548 35,000  Level Chicago Center
Sat 01:45:35 PM 41.9519 -85.1794 91° East 471 542 35,000  Level Chicago Center
Sat 01:46:37 PM 41.9506 -84.9647 90° East 478 550 35,000  Level Chicago Center
Sat 01:47:39 PM 41.9494 -84.7872 90° East 475 547 35,000  Level Chicago Center
Sat 01:48:41 PM 41.9481 -84.6100 91° East 475 547 35,000  Level Chicago Center
Sat 01:49:43 PM 41.9461 -84.4317 91° East 477 549 35,000  Level Chicago Center
Sat 01:50:44 PM 41.9414 -84.2375 92° East 471 542 35,000  Level Cleveland Center
Sat 01:51:44 PM 41.9403 -84.0672 90° East 471 542 35,000  Level Cleveland Center
Sat 01:52:44 PM 41.9372 -83.8967 91° East 460 529 35,000  Level Cleveland Center
Sat 01:53:44 PM 41.9358 -83.7208 91° East 460 529 35,000  Level Cleveland Center
Sat 01:54:44 PM 41.9331 -83.5839 92° East 460 529 35,000  Level Cleveland Center
Sat 01:55:44 PM 41.9339 -83.3911 90° East 465 535 35,000  Level Cleveland Center
Sat 01:56:44 PM 41.9317 -83.2181 91° East 465 535 35,000  Level Cleveland Center
Sat 01:57:44 PM 41.9297 -83.0253 91° East 465 535 35,000  Level Cleveland Center
Sat 01:58:44 PM 41.9292 -82.8522 90° East 465 535 35,000  Level Cleveland Center
Sat 01:59:44 PM 41.9261 -82.6903 91° East 467 537 35,000  Level Cleveland Center
Sat 02:00:44 PM 41.9250 -82.5144 90° East 467 537 35,000  Level Cleveland Center
Sat 02:01:44 PM 41.9236 -82.3414 91° East 467 537 35,000  Level Cleveland Center
Sat 02:02:44 PM 41.9219 -82.1683 91° East 467 537 35,000  Level Cleveland Center
Sat 02:03:44 PM 41.9181 -81.9728 91° East 461 531 35,000  Level Cleveland Center
Sat 02:04:44 PM 41.9139 -81.7969 92° East 466 536 35,000  Level Cleveland Center
Sat 02:05:44 PM 41.8989 -81.6264 97° East 466 536 35,000  Level Cleveland Center
Sat 02:06:44 PM 41.8836 -81.4700 97° East 466 536 35,000  Level Cleveland Center
Sat 02:07:44 PM 41.8703 -81.2997 96° East 466 536 35,000  Level Cleveland Center
Sat 02:08:44 PM 41.8544 -81.1239 97° East 466 536 35,000  Level Cleveland Center
Sat 02:09:44 PM 41.8364 -80.9483 98° East 472 543 35,000  Level Cleveland Center
Sat 02:10:44 PM 41.8181 -80.7614 97° East 467 537 35,000  Level Cleveland Center
Sat 02:11:44 PM 41.7994 -80.5858 98° East 467 537 35,000  Level Cleveland Center
Sat 02:12:44 PM 41.7828 -80.4161 97° East 467 537 35,000  Level Cleveland Center
Sat 02:13:44 PM 41.7678 -80.2436 97° East 467 537 35,000  Level Cleveland Center
Sat 02:14:44 PM 41.7483 -80.0739 99° East 462 532 35,000  Level Cleveland Center
Sat 02:15:44 PM 41.7286 -79.8958 98° East 467 537 35,000  Level Cleveland Center
Sat 02:16:44 PM 41.7131 -79.7292 97° East 467 537 35,000  Level Cleveland Center
Sat 02:17:44 PM 41.6969 -79.5597 97° East 462 532 35,000  Level Cleveland Center
Sat 02:18:44 PM 41.6767 -79.3961 99° East 462 532 35,000  Level Cleveland Center
Sat 02:19:44 PM 41.6603 -79.2269 97° East 457 526 35,000  Level Cleveland Center
Sat 02:20:44 PM 41.6414 -79.0633 99° East 452 520 35,000  Level Cleveland Center
Sat 02:21:44 PM 41.6225 -78.8944 98° East 452 520 35,000  Level Cleveland Center
Sat 02:22:44 PM 41.6031 -78.7256 99° East 452 520 35,000  Level Cleveland Center
Sat 02:23:44 PM 41.5814 -78.5511 99° East 463 533 35,000 -577 Level Cleveland Center
Sat 02:25:20 PM 41.5522 -78.2864 98° East 486 559 33,500 -779 Descending New York Center
Sat 02:26:18 PM 41.5294 -78.1175 100° East 472 543 33,000 -252 Descending New York Center
Sat 02:27:19 PM 41.5069 -77.9406 100° East 472 543 33,000  Level New York Center
Sat 02:29:18 PM 41.4592 -77.5836 100° East 477 549 33,000  Level New York Center
Sat 02:30:19 PM 41.4347 -77.4261 102° East 477 549 33,000  Level New York Center
Sat 02:31:20 PM 41.4072 -77.2464 101° East 482 555 33,000 -50 Level New York Center
Sat 02:32:20 PM 41.3814 -77.0697 101° East 482 555 32,900 -1,261 Descending New York Center
Sat 02:33:19 PM 41.3550 -76.8958 101° East 482 555 30,500 -2,471 Descending New York Center
Sat 02:34:19 PM 41.3222 -76.7217 104° East 482 555 28,000 -2,508 Descending New York Center
Sat 02:35:21 PM 41.2783 -76.5547 109° East 477 549 25,400 -3,025 Descending New York Center
Sat 02:36:18 PM 41.2286 -76.3767 110° East 477 549 22,000 -2,824 Descending New York Center
Sat 02:37:20 PM 41.1858 -76.2242 110° East 465 535 19,800 -2,100 Descending New York Center
Sat 02:38:18 PM 41.1506 -76.0836 108° East 421 484 17,800 -1,916 Descending New York Center
Sat 02:39:19 PM 41.1131 -75.9431 109° East 397 457 16,000 -2,100 Descending New York Center
Sat 02:40:18 PM 41.0772 -75.8081 109° East 397 457 13,600 -2,150 Descending New York Center
Sat 02:41:19 PM 41.0447 -75.6872 110° East 390 449 11,700 -1,289 Descending New York Center
Sat 02:42:19 PM 41.0025 -75.5497 112° Southeast 377 434 11,000 -353 Descending New York Center
Sat 02:43:18 PM 40.9681 -75.4208 109° East 377 434 11,000 -149 Level New York Center
Sat 02:44:20 PM 40.9311 -75.2947 111° Southeast 377 434 10,700 -541 Descending New York Center
Sat 02:45:20 PM 40.9019 -75.1883 110° East 338 389 9,900 -1,169 Descending New York Center
Sat 02:46:18 PM 40.8781 -75.1017 110° East 289 333 8,400 -1,424 Descending New York Center
Sat 02:47:18 PM 40.8503 -75.0039 111° Southeast 277 319 7,100 -694 Descending New York Center
Sat 02:48:19 PM 40.8206 -74.9006 111° Southeast 277 319 7,000 -390 Descending New York Center
Sat 02:49:21 PM 40.8344 -74.8000 80° East 269 310 6,300 -504 Descending New York Center
Sat 02:50:18 PM 40.8603 -74.7164 68° East 269 310 6,000 -153 Descending New York Center
Sat 02:51:19 PM 40.8950 -74.6142 66° East 269 310 6,000  Level New York Center
Sat 02:51:57 PM 40.9167 -74.5500 66° East 279 321 6,000 -429 Level New York TRACON
Sat 02:52:57 PM 40.9500 -74.4667 62° Northeast 267 307 5,300 -500 Descending New York TRACON
Sat 02:53:57 PM 40.9667 -74.3833 75° East 239 275 5,000 -100 Descending New York TRACON
Sat 02:54:57 PM 41.0000 -74.3000 62° Northeast 226 260 5,100  Climbing New York TRACON
Sat 02:55:57 PM 41.0167 -74.2333 72° East 189 217 5,000 -300 Descending New York TRACON
Sat 02:56:57 PM 41.0000 -74.1833 114° Southeast 190 219 4,500 -500 Descending New York TRACON
Sat 02:57:57 PM 40.9667 -74.1333 131° Southeast 182 209 4,000 -700 Descending New York TRACON
Sat 02:58:57 PM 40.9167 -74.1000 153° Southeast 183 211 3,100 -500 Descending New York TRACON
Sat 02:59:57 PM 40.8667 -74.1000 180° South 185 213 3,000 -250 Descending New York TRACON
Sat 03:00:57 PM 40.8167 -74.1000 180° South 176 203 2,600 -632 Descending New York TRACON
Sat 03:01:51 PM 40.7833 -74.1167 201° Southwest 172 198 1,800 -800 Descending New York TRACON
Sat 03:02:57 PM 40.7333 -74.1333 194° South 131 151 1,000 -750 Descending New York TRACON
Sat 03:03:51 PM 40.7167 -74.1500 217° Southwest 135 155 300 -778 Descending New York TRACON

Login

Don't have an account? Register now (free) for customized features, flight alerts, and more!